Meteo Giornale » Osservazioni meteo Stati Uniti (USA) » Moses Lake Grant
ore: 13:52 - Osservazioni Meteo Moses Lake Grant
Lat. 47° 11' N Lon. 119° 18' W Alt. 361 metri s.l.m.
27 °C
Sereno
Temp. 24 Ore
8 °C
27 °C
Nord
0 Km/h
Dew point 3 °C
Umidità 21 %
Visibilità 10 Km
Il sole sorge alle ore 06:15
Il sole tramonta alle ore 19:39
| Data e Ora | Cielo e Fenomeni | T °C | DP °C | Um. % | Pres. hPa | Vis. km | Vento km/h | |
|---|---|---|---|---|---|---|---|---|
| Oggi h: 13:52 | Sereno | 27 | 3 | 21 | 1012 | 10 | N 0 | |
| Oggi h: 12:52 | Sereno | 26 | 3 | 22 | 1013 | 10 | N 0 | |
| Oggi h: 11:52 | Sereno | 24 | 3 | 25 | 1014 | 10 | N 0 | |
| Oggi h: 10:52 | Sereno | 22 | 4 | 30 | 1015 | 10 | N 0 | |
| Oggi h: 09:52 | Sereno | 18 | 6 | 45 | 1015 | 10 | N 5.5 | |
| Oggi h: 08:52 | Sereno | 15 | 6 | 54 | 1016 | 10 | N 9.3 | |
| Oggi h: 07:52 | Sereno | 11 | 6 | 71 | 1016 | 10 | N 5.5 | |
| Oggi h: 06:52 | Sereno | 9 | 5 | 75 | 1015 | 10 | N 9.3 | |
| Oggi h: 05:52 | Sereno | 8 | 5 | 81 | 1015 | 10 | N 13 | |
| Oggi h: 04:52 | Sereno | 9 | 5 | 75 | 1015 | 10 | N 11.1 | |
| Oggi h: 03:52 | Sereno | 8 | 6 | 87 | 1015 | 10 | N 9.3 | |
| Oggi h: 02:52 | Sereno | 9 | 6 | 81 | 1015 | 10 | N 7.4 | |
| Oggi h: 01:52 | Sereno | 10 | 7 | 81 | 1015 | 10 | N/NE 11.1 | |
| Oggi h: 00:52 | Sereno | 11 | 7 | 76 | 1015 | 10 | N 0 | |
| Ieri h: 23:52 | Sereno | 12 | 7 | 71 | 1015 | 10 | N 7.4 | |
| Ieri h: 22:52 | Sereno | 14 | 8 | 67 | 1015 | 10 | N 7.4 | |
| Ieri h: 21:52 | Sereno | 17 | 7 | 51 | 1015 | 10 | N 0 | |
| Ieri h: 20:52 | Sereno | 17 | 7 | 51 | 1015 | 10 | SE 7.4 | |
| Ieri h: 19:52 | Sereno | 19 | 7 | 45 | 1015 | 10 | E/SE 11.1 | |
| Ieri h: 18:52 | Sereno | 22 | 7 | 37 | 1015 | 10 | SE 14.8 | |
| Ieri h: 17:52 | Sereno | 23 | 6 | 33 | 1015 | 10 | SE 16.7 | |
| Ieri h: 16:52 | Sereno | 23 | 5 | 31 | 1015 | 10 | S 18.5 | |
| Ieri h: 15:52 | Sereno | 23 | 5 | 31 | 1016 | 10 | S/SE 18.5 | |
| Ieri h: 14:52 | Sereno | 23 | 5 | 31 | 1016 | 10 | N 9.3 | |



